sensor_id;sensor_type;location;lat;lon;timestamp;pressure;altitude;pressure_sealevel;temperature;humidity
12763;BME280;6445;52.490;13.378;2023-06-10T00:02:14;53576.66;;;-146.10;100.00
12763;BME280;6445;52.490;13.378;2023-06-10T00:04:41;53584.69;;;-146.10;100.00
12763;BME280;6445;52.490;13.378;2023-06-10T00:07:07;53588.69;;;-146.10;100.00
12763;BME280;6445;52.490;13.378;2023-06-10T00:09:34;54185.09;;;-146.10;100.00
12763;BME280;6445;52.490;13.378;2023-06-10T00:12:02;54755.59;;;-146.10;100.00
12763;BME280;6445;52.490;13.378;2023-06-10T00:14:27;54459.34;;;-146.10;100.00
12763;BME280;6445;52.490;13.378;2023-06-10T00:16:52;54279.19;;;-146.10;100.00
12763;BME280;6445;52.490;13.378;2023-06-10T00:19:18;55013.84;;;-146.10;100.00
12763;BME280;6445;52.490;13.378;2023-06-10T00:21:44;54027.00;;;-146.10;100.00
12763;BME280;6445;52.490;13.378;2023-06-10T00:24:10;54595.47;;;-146.10;100.00
12763;BME280;6445;52.490;13.378;2023-06-10T00:26:37;54169.09;;;-146.10;100.00
12763;BME280;6445;52.490;13.378;2023-06-10T00:29:03;54489.38;;;-146.10;100.00
12763;BME280;6445;52.490;13.378;2023-06-10T00:31:28;55127.97;;;-146.10;100.00
12763;BME280;6445;52.490;13.378;2023-06-10T00:33:53;57142.56;;;-146.10;100.00
12763;BME280;6445;52.490;13.378;2023-06-10T00:36:19;58945.78;;;-146.10;100.00
12763;BME280;6445;52.490;13.378;2023-06-10T00:38:44;58158.28;;;-146.10;100.00
12763;BME280;6445;52.490;13.378;2023-06-10T00:41:09;57737.53;;;-146.10;100.00
12763;BME280;6445;52.490;13.378;2023-06-10T00:43:35;56701.91;;;-146.10;100.00
12763;BME280;6445;52.490;13.378;2023-06-10T00:46:00;56269.31;;;-146.10;100.00
12763;BME280;6445;52.490;13.378;2023-06-10T00:48:26;56587.75;;;-146.10;100.00
12763;BME280;6445;52.490;13.378;2023-06-10T00:50:52;55123.97;;;-146.10;100.00
12763;BME280;6445;52.490;13.378;2023-06-10T00:53:18;59943.88;;;-146.10;100.00
12763;BME280;6445;52.490;13.378;2023-06-10T00:55:43;62729.13;;;-146.10;100.00
12763;BME280;6445;52.490;13.378;2023-06-10T00:58:09;62412.19;;;-146.10;100.00
12763;BME280;6445;52.490;13.378;2023-06-10T01:00:34;63453.31;;;-146.10;100.00
12763;BME280;6445;52.490;13.378;2023-06-10T01:03:00;64659.28;;;-146.10;100.00
12763;BME280;6445;52.490;13.378;2023-06-10T01:05:25;67578.34;;;-146.10;100.00
12763;BME280;6445;52.490;13.378;2023-06-10T01:08:01;65596.59;;;-146.10;100.00
12763;BME280;6445;52.490;13.378;2023-06-10T01:10:38;63258.72;;;-146.10;100.00
12763;BME280;6445;52.490;13.378;2023-06-10T01:13:07;69969.00;;;-146.10;100.00
12763;BME280;6445;52.490;13.378;2023-06-10T01:15:34;73004.59;;;-146.10;100.00
12763;BME280;6445;52.490;13.378;2023-06-10T01:18:07;72176.13;;;-146.10;100.00
12763;BME280;6445;52.490;13.378;2023-06-10T01:20:43;71649.34;;;-146.10;100.00
12763;BME280;6445;52.490;13.378;2023-06-10T01:23:12;67817.34;;;-146.10;100.00
12763;BME280;6445;52.490;13.378;2023-06-10T01:25:39;71554.88;;;-146.10;100.00
12763;BME280;6445;52.490;13.378;2023-06-10T01:28:17;78897.38;;;-146.10;100.00
12763;BME280;6445;52.490;13.378;2023-06-10T01:31:08;83681.59;;;-146.10;100.00
12763;BME280;6445;52.490;13.378;2023-06-10T01:33:38;85488.72;;;-146.10;100.00
12763;BME280;6445;52.490;13.378;2023-06-10T01:36:06;86263.47;;;-146.10;100.00
12763;BME280;6445;52.490;13.378;2023-06-10T01:38:34;83165.41;;;-146.10;100.00
12763;BME280;6445;52.490;13.378;2023-06-10T01:41:02;85712.66;;;-146.10;100.00
12763;BME280;6445;52.490;13.378;2023-06-10T01:43:28;86499.53;;;-146.10;100.00
12763;BME280;6445;52.490;13.378;2023-06-10T01:45:53;87555.03;;;-146.10;100.00
12763;BME280;6445;52.490;13.378;2023-06-10T01:48:18;84316.81;;;-146.10;100.00
12763;BME280;6445;52.490;13.378;2023-06-10T01:50:44;87100.91;;;-146.10;100.00
12763;BME280;6445;52.490;13.378;2023-06-10T01:53:09;84568.91;;;-146.10;100.00
12763;BME280;6445;52.490;13.378;2023-06-10T01:55:34;83840.88;;;-146.10;100.00
12763;BME280;6445;52.490;13.378;2023-06-10T01:57:59;85496.78;;;-146.10;100.00
12763;BME280;6445;52.490;13.378;2023-06-10T02:00:25;88960.06;;;-146.10;100.00
12763;BME280;6445;52.490;13.378;2023-06-10T02:02:50;89277.06;;;-146.10;100.00
12763;BME280;6445;52.490;13.378;2023-06-10T02:05:15;91672.63;;;-146.10;100.00
12763;BME280;6445;52.490;13.378;2023-06-10T02:07:41;91173.59;;;-146.10;100.00
12763;BME280;6445;52.490;13.378;2023-06-10T02:10:06;91422.09;;;-146.10;100.00
12763;BME280;6445;52.490;13.378;2023-06-10T02:12:32;90377.72;;;-146.10;100.00
12763;BME280;6445;52.490;13.378;2023-06-10T02:14:57;90852.41;;;-146.10;100.00
12763;BME280;6445;52.490;13.378;2023-06-10T02:17:22;92464.72;;;-146.10;100.00
12763;BME280;6445;52.490;13.378;2023-06-10T02:19:48;92450.56;;;-146.10;100.00
12763;BME280;6445;52.490;13.378;2023-06-10T02:22:21;91690.81;;;-146.10;100.00
12763;BME280;6445;52.490;13.378;2023-06-10T02:24:47;88580.50;;;-146.10;100.00
12763;BME280;6445;52.490;13.378;2023-06-10T02:27:12;87976.88;;;-146.10;100.00
12763;BME280;6445;52.490;13.378;2023-06-10T02:29:38;88221.16;;;-146.10;100.00
12763;BME280;6445;52.490;13.378;2023-06-10T02:32:03;92725.41;;;-146.10;100.00
12763;BME280;6445;52.490;13.378;2023-06-10T02:34:29;91131.19;;;-146.10;100.00
12763;BME280;6445;52.490;13.378;2023-06-10T02:36:54;94795.44;;;-146.10;100.00
12763;BME280;6445;52.490;13.378;2023-06-10T02:39:19;97902.44;;;-146.10;100.00
12763;BME280;6445;52.490;13.378;2023-06-10T02:41:44;98420.50;;;-146.10;100.00
12763;BME280;6445;52.490;13.378;2023-06-10T02:44:10;99456.84;;;-146.10;100.00
12763;BME280;6445;52.490;13.378;2023-06-10T02:46:35;101011.81;;;-146.10;100.00
12763;BME280;6445;52.490;13.378;2023-06-10T02:49:00;101530.28;;;-146.10;100.00
12763;BME280;6445;52.490;13.378;2023-06-10T02:51:26;102826.75;;;-146.10;100.00
12763;BME280;6445;52.490;13.378;2023-06-10T02:53:52;104123.59;;;-146.10;100.00
12763;BME280;6445;52.490;13.378;2023-06-10T02:56:17;103864.19;;;-146.10;100.00
12763;BME280;6445;52.490;13.378;2023-06-10T02:58:42;103604.81;;;-146.10;100.00
12763;BME280;6445;52.490;13.378;2023-06-10T03:01:07;103604.81;;;-146.10;100.00
12763;BME280;6445;52.490;13.378;2023-06-10T03:03:35;102308.09;;;-146.10;100.00
12763;BME280;6445;52.490;13.378;2023-06-10T03:06:02;102826.75;;;-146.10;100.00
12763;BME280;6445;52.490;13.378;2023-06-10T03:08:27;102826.75;;;-146.10;100.00
12763;BME280;6445;52.490;13.378;2023-06-10T03:10:52;104123.59;;;-146.10;100.00
12763;BME280;6445;52.490;13.378;2023-06-10T03:13:18;104383.03;;;-146.10;100.00
12763;BME280;6445;52.490;13.378;2023-06-10T03:15:43;104642.47;;;-146.10;100.00
12763;BME280;6445;52.490;13.378;2023-06-10T03:18:09;105161.41;;;-146.10;100.00
12763;BME280;6445;52.490;13.378;2023-06-10T03:20:34;104901.91;;;-146.10;100.00
12763;BME280;6445;52.490;13.378;2023-06-10T03:23:04;105680.38;;;-146.10;100.00
12763;BME280;6445;52.490;13.378;2023-06-10T03:25:31;106718.56;;;-146.10;100.00
12763;BME280;6445;52.490;13.378;2023-06-10T03:27:57;106718.56;;;-146.10;100.00
12763;BME280;6445;52.490;13.378;2023-06-10T03:30:22;106978.16;;;-146.10;100.00
12763;BME280;6445;52.490;13.378;2023-06-10T03:32:47;106978.16;;;-146.10;100.00
12763;BME280;6445;52.490;13.378;2023-06-10T03:35:13;104901.91;;;-146.10;100.00
12763;BME280;6445;52.490;13.378;2023-06-10T03:37:39;105939.91;;;-146.10;100.00
12763;BME280;6445;52.490;13.378;2023-06-10T03:40:05;105161.41;;;-146.10;100.00
12763;BME280;6445;52.490;13.378;2023-06-10T03:42:34;105939.91;;;-146.10;100.00
12763;BME280;6445;52.490;13.378;2023-06-10T03:44:59;105939.91;;;-146.10;100.00
12763;BME280;6445;52.490;13.378;2023-06-10T03:47:24;105680.38;;;-146.10;100.00
12763;BME280;6445;52.490;13.378;2023-06-10T03:49:53;104642.47;;;-146.10;100.00
12763;BME280;6445;52.490;13.378;2023-06-10T03:52:18;104642.47;;;-146.10;100.00
12763;BME280;6445;52.490;13.378;2023-06-10T03:54:44;105420.88;;;-146.10;100.00
12763;BME280;6445;52.490;13.378;2023-06-10T03:57:09;104123.59;;;-146.10;100.00
12763;BME280;6445;52.490;13.378;2023-06-10T03:59:34;103864.19;;;-146.10;100.00
12763;BME280;6445;52.490;13.378;2023-06-10T04:02:00;104383.03;;;-146.10;100.00
12763;BME280;6445;52.490;13.378;2023-06-10T04:04:26;101530.28;;;-146.10;100.00
12763;BME280;6445;52.490;13.378;2023-06-10T04:06:51;102826.75;;;-146.10;100.00
12763;BME280;6445;52.490;13.378;2023-06-10T04:09:17;102048.81;;;-146.10;100.00
12763;BME280;6445;52.490;13.378;2023-06-10T04:11:42;102826.75;;;-146.10;100.00
12763;BME280;6445;52.490;13.378;2023-06-10T04:14:08;101789.53;;;-146.10;100.00
12763;BME280;6445;52.490;13.378;2023-06-10T04:16:33;100752.63;;;-146.10;100.00
12763;BME280;6445;52.490;13.378;2023-06-10T04:18:59;100752.63;;;-146.10;100.00
12763;BME280;6445;52.490;13.378;2023-06-10T04:21:25;100493.44;;;-146.10;100.00
12763;BME280;6445;52.490;13.378;2023-06-10T04:23:51;97902.44;;;-146.10;100.00
12763;BME280;6445;52.490;13.378;2023-06-10T04:26:16;96089.72;;;-146.10;100.00
12763;BME280;6445;52.490;13.378;2023-06-10T04:28:43;94795.44;;;-146.10;100.00
12763;BME280;6445;52.490;13.378;2023-06-10T04:31:09;90397.91;;;-146.10;100.00
12763;BME280;6445;52.490;13.378;2023-06-10T04:33:35;87038.34;;;-146.10;100.00
12763;BME280;6445;52.490;13.378;2023-06-10T04:36:00;85230.50;;;-146.10;100.00
12763;BME280;6445;52.490;13.378;2023-06-10T04:38:25;87296.69;;;-146.10;100.00
12763;BME280;6445;52.490;13.378;2023-06-10T04:40:51;82907.34;;;-146.10;100.00
12763;BME280;6445;52.490;13.378;2023-06-10T04:43:16;77749.53;;;-146.10;100.00
12763;BME280;6445;52.490;13.378;2023-06-10T04:45:42;76203.50;;;-146.10;100.00
12763;BME280;6445;52.490;13.378;2023-06-10T04:48:10;75688.28;;;-146.10;100.00
12763;BME280;6445;52.490;13.378;2023-06-10T04:50:35;75430.69;;;-146.10;100.00
12763;BME280;6445;52.490;13.378;2023-06-10T04:53:01;74915.59;;;-146.10;100.00
12763;BME280;6445;52.490;13.378;2023-06-10T04:55:26;77234.13;;;-146.10;100.00
12763;BME280;6445;52.490;13.378;2023-06-10T04:57:51;76976.44;;;-146.10;100.00
12763;BME280;6445;52.490;13.378;2023-06-10T05:00:18;73885.56;;;-146.10;100.00
12763;BME280;6445;52.490;13.378;2023-06-10T05:02:43;71311.63;;;-146.10;100.00
12763;BME280;6445;52.490;13.378;2023-06-10T05:05:09;74658.06;;;-146.10;100.00
12763;BME280;6445;52.490;13.378;2023-06-10T05:07:35;71826.28;;;-146.10;100.00
12763;BME280;6445;52.490;13.378;2023-06-10T05:10:00;64994.44;;;-146.10;100.00
12763;BME280;6445;52.490;13.378;2023-06-10T05:12:26;60294.69;;;-146.10;100.00
12763;BME280;6445;52.490;13.378;2023-06-10T05:14:51;59244.38;;;-146.10;100.00
12763;BME280;6445;52.490;13.378;2023-06-10T05:17:16;59837.66;;;-146.10;100.00
12763;BME280;6445;52.490;13.378;2023-06-10T05:19:42;55838.78;;;-146.10;100.00
12763;BME280;6445;52.490;13.378;2023-06-10T05:22:08;54947.78;;;-146.10;100.00
12763;BME280;6445;52.490;13.378;2023-06-10T05:24:33;53154.41;;;-146.10;100.00
12763;BME280;6445;52.490;13.378;2023-06-10T05:26:58;51481.88;;;-146.10;100.00
12763;BME280;6445;52.490;13.378;2023-06-10T05:29:24;51221.84;;;-146.10;100.00
12763;BME280;6445;52.490;13.378;2023-06-10T05:31:49;52210.03;;;-146.10;100.00
12763;BME280;6445;52.490;13.378;2023-06-10T05:34:15;52206.03;;;-146.10;100.00
12763;BME280;6445;52.490;13.378;2023-06-10T05:36:40;50551.88;;;-146.10;100.00
12763;BME280;6445;52.490;13.378;2023-06-10T05:39:05;50031.97;;;-146.10;100.00
12763;BME280;6445;52.490;13.378;2023-06-10T05:41:31;49526.13;;;-146.10;100.00
12763;BME280;6445;52.490;13.378;2023-06-10T05:43:56;49692.06;;;-146.10;100.00
12763;BME280;6445;52.490;13.378;2023-06-10T05:46:21;50017.97;;;-146.10;100.00
12763;BME280;6445;52.490;13.378;2023-06-10T05:48:46;50751.84;;;-146.10;100.00
12763;BME280;6445;52.490;13.378;2023-06-10T05:51:12;51229.84;;;-146.10;99.96
12763;BME280;6445;52.490;13.378;2023-06-10T05:53:37;51525.88;;;-146.10;94.73
12763;BME280;6445;52.490;13.378;2023-06-10T05:56:03;51967.97;;;-146.10;82.16
12763;BME280;6445;52.490;13.378;2023-06-10T05:58:28;52096.00;;;-146.10;79.42
12763;BME280;6445;52.490;13.378;2023-06-10T06:00:54;52138.00;;;-146.10;77.29
12763;BME280;6445;52.490;13.378;2023-06-10T06:03:19;52146.00;;;-146.10;78.79
12763;BME280;6445;52.490;13.378;2023-06-10T06:05:44;52162.00;;;-146.10;78.01
12763;BME280;6445;52.490;13.378;2023-06-10T06:08:11;52184.03;;;-146.10;79.79
12763;BME280;6445;52.490;13.378;2023-06-10T06:10:38;52180.00;;;-146.10;85.08
12763;BME280;6445;52.490;13.378;2023-06-10T06:13:03;52190.03;;;-146.10;84.97
12763;BME280;6445;52.490;13.378;2023-06-10T06:15:28;52174.00;;;-146.10;84.59
12763;BME280;6445;52.490;13.378;2023-06-10T06:17:54;52190.03;;;-146.10;81.42
12763;BME280;6445;52.490;13.378;2023-06-10T06:20:20;52208.03;;;-146.10;76.91
12763;BME280;6445;52.490;13.378;2023-06-10T06:22:45;52308.06;;;-146.10;67.90
12763;BME280;6445;52.490;13.378;2023-06-10T06:25:10;52414.09;;;-146.10;61.51
12763;BME280;6445;52.490;13.378;2023-06-10T06:27:36;52398.09;;;-146.10;62.15
12763;BME280;6445;52.490;13.378;2023-06-10T06:30:01;52340.06;;;-146.10;65.89
12763;BME280;6445;52.490;13.378;2023-06-10T06:32:26;52336.06;;;-146.10;68.47
12763;BME280;6445;52.490;13.378;2023-06-10T06:34:53;52342.06;;;-146.10;65.80
12763;BME280;6445;52.490;13.378;2023-06-10T06:37:24;52322.06;;;-146.10;67.62
12763;BME280;6445;52.490;13.378;2023-06-10T06:39:53;52364.06;;;-146.10;67.07
12763;BME280;6445;52.490;13.378;2023-06-10T06:42:19;52314.06;;;-146.10;68.12
12763;BME280;6445;52.490;13.378;2023-06-10T06:44:45;52386.09;;;-146.10;67.30
12763;BME280;6445;52.490;13.378;2023-06-10T06:47:11;52398.09;;;-146.10;63.17
12763;BME280;6445;52.490;13.378;2023-06-10T06:49:37;52372.06;;;-146.10;62.37
12763;BME280;6445;52.490;13.378;2023-06-10T06:52:02;52424.09;;;-146.10;61.86
12763;BME280;6445;52.490;13.378;2023-06-10T06:54:28;52408.09;;;-146.10;60.81
12763;BME280;6445;52.490;13.378;2023-06-10T06:56:54;52428.09;;;-146.10;60.06
12763;BME280;6445;52.490;13.378;2023-06-10T06:59:19;52374.06;;;-146.10;62.31
12763;BME280;6445;52.490;13.378;2023-06-10T07:01:45;52580.16;;;-146.10;56.41
12763;BME280;6445;52.490;13.378;2023-06-10T07:04:14;52580.16;;;-146.10;54.06
12763;BME280;6445;52.490;13.378;2023-06-10T07:06:40;52518.13;;;-146.10;55.17
12763;BME280;6445;52.490;13.378;2023-06-10T07:09:05;52428.09;;;-146.10;59.09
12763;BME280;6445;52.490;13.378;2023-06-10T07:11:31;52452.09;;;-146.10;58.82
12763;BME280;6445;52.490;13.378;2023-06-10T07:13:56;52508.13;;;-146.10;57.18
12763;BME280;6445;52.490;13.378;2023-06-10T07:16:22;52608.16;;;-146.10;53.83
12763;BME280;6445;52.490;13.378;2023-06-10T07:18:47;52900.28;;;-146.10;45.90
12763;BME280;6445;52.490;13.378;2023-06-10T07:21:12;52918.31;;;-146.10;42.94
12763;BME280;6445;52.490;13.378;2023-06-10T07:23:41;52984.34;;;-146.10;40.19
12763;BME280;6445;52.490;13.378;2023-06-10T07:26:07;53028.34;;;-146.10;40.35
12763;BME280;6445;52.490;13.378;2023-06-10T07:28:36;53146.41;;;-146.10;38.15
12763;BME280;6445;52.490;13.378;2023-06-10T07:31:01;53270.47;;;-146.10;35.18
12763;BME280;6445;52.490;13.378;2023-06-10T07:33:26;53306.50;;;-146.10;35.42
12763;BME280;6445;52.490;13.378;2023-06-10T07:35:52;53304.50;;;-146.10;34.79
12763;BME280;6445;52.490;13.378;2023-06-10T07:38:17;53342.53;;;-146.10;34.51
12763;BME280;6445;52.490;13.378;2023-06-10T07:40:42;53270.47;;;-146.10;34.62
12763;BME280;6445;52.490;13.378;2023-06-10T07:43:07;53320.50;;;-146.10;34.05
12763;BME280;6445;52.490;13.378;2023-06-10T07:45:33;53314.50;;;-146.10;34.42
12763;BME280;6445;52.490;13.378;2023-06-10T07:47:58;53092.38;;;-146.10;36.63
12763;BME280;6445;52.490;13.378;2023-06-10T07:50:23;53012.34;;;-146.10;38.80
12763;BME280;6445;52.490;13.378;2023-06-10T07:52:48;52794.25;;;-146.10;43.42
12763;BME280;6445;52.490;13.378;2023-06-10T07:55:14;52772.22;;;-146.10;44.25
12763;BME280;6445;52.490;13.378;2023-06-10T07:57:39;52668.19;;;-146.10;48.47
12763;BME280;6445;52.490;13.378;2023-06-10T08:00:05;52640.19;;;-146.10;49.82
12763;BME280;6445;52.490;13.378;2023-06-10T08:02:33;52628.16;;;-146.10;50.85
12763;BME280;6445;52.490;13.378;2023-06-10T08:04:58;52626.16;;;-146.10;53.02
12763;BME280;6445;52.490;13.378;2023-06-10T08:07:23;52604.16;;;-146.10;51.90
12763;BME280;6445;52.490;13.378;2023-06-10T08:09:48;52620.16;;;-146.10;51.27
12763;BME280;6445;52.490;13.378;2023-06-10T08:12:14;52640.19;;;-146.10;52.44
12763;BME280;6445;52.490;13.378;2023-06-10T08:14:40;52562.16;;;-146.10;54.11
12763;BME280;6445;52.490;13.378;2023-06-10T08:17:05;52596.16;;;-146.10;55.38
12763;BME280;6445;52.490;13.378;2023-06-10T08:19:31;52702.19;;;-146.10;51.09
12763;BME280;6445;52.490;13.378;2023-06-10T08:21:56;53018.34;;;-146.10;42.93
12763;BME280;6445;52.490;13.378;2023-06-10T08:24:22;52868.28;;;-146.10;43.40
12763;BME280;6445;52.490;13.378;2023-06-10T08:26:47;53004.34;;;-146.10;43.15
12763;BME280;6445;52.490;13.378;2023-06-10T08:29:12;53262.47;;;-146.10;38.40
12763;BME280;6445;52.490;13.378;2023-06-10T08:31:41;53270.47;;;-146.10;36.31
12763;BME280;6445;52.490;13.378;2023-06-10T08:34:06;53446.59;;;-146.10;34.52
12763;BME280;6445;52.490;13.378;2023-06-10T08:36:32;53240.47;;;-146.10;35.83
12763;BME280;6445;52.490;13.378;2023-06-10T08:38:57;53436.59;;;-146.10;33.92
12763;BME280;6445;52.490;13.378;2023-06-10T08:41:25;53382.56;;;-146.10;33.60
12763;BME280;6445;52.490;13.378;2023-06-10T08:44:04;53254.47;;;-146.10;34.27
12763;BME280;6445;52.490;13.378;2023-06-10T08:46:31;53332.53;;;-146.10;34.88
12763;BME280;6445;52.490;13.378;2023-06-10T08:49:05;53288.50;;;-146.10;34.37
12763;BME280;6445;52.490;13.378;2023-06-10T08:51:32;53158.44;;;-146.10;36.65
12763;BME280;6445;52.490;13.378;2023-06-10T08:54:04;53204.44;;;-146.10;36.27
12763;BME280;6445;52.490;13.378;2023-06-10T08:56:32;53414.56;;;-146.10;34.65
12763;BME280;6445;52.490;13.378;2023-06-10T08:58:59;53428.56;;;-146.10;33.56
12763;BME280;6445;52.490;13.378;2023-06-10T09:01:25;53430.59;;;-146.10;33.56
12763;BME280;6445;52.490;13.378;2023-06-10T09:03:51;53454.59;;;-146.10;33.14
12763;BME280;6445;52.490;13.378;2023-06-10T09:06:17;53266.47;;;-146.10;34.06
12763;BME280;6445;52.490;13.378;2023-06-10T09:08:43;53208.44;;;-146.10;35.25
12763;BME280;6445;52.490;13.378;2023-06-10T09:11:08;53118.41;;;-146.10;36.02
12763;BME280;6445;52.490;13.378;2023-06-10T09:13:34;53246.47;;;-146.10;36.06
12763;BME280;6445;52.490;13.378;2023-06-10T09:15:59;53334.53;;;-146.10;34.69
12763;BME280;6445;52.490;13.378;2023-06-10T09:18:27;53434.59;;;-146.10;33.30
12763;BME280;6445;52.490;13.378;2023-06-10T09:20:53;53400.56;;;-146.10;33.52
12763;BME280;6445;52.490;13.378;2023-06-10T09:23:18;53328.53;;;-146.10;34.16
12763;BME280;6445;52.490;13.378;2023-06-10T09:25:43;53332.53;;;-146.10;33.90
12763;BME280;6445;52.490;13.378;2023-06-10T09:28:14;53196.44;;;-146.10;35.24
12763;BME280;6445;52.490;13.378;2023-06-10T09:30:39;53118.41;;;-146.10;36.04
12763;BME280;6445;52.490;13.378;2023-06-10T09:33:12;53118.41;;;-146.10;36.91
12763;BME280;6445;52.490;13.378;2023-06-10T09:35:46;53140.41;;;-146.10;37.13
12763;BME280;6445;52.490;13.378;2023-06-10T09:38:13;53098.38;;;-146.10;37.77
12763;BME280;6445;52.490;13.378;2023-06-10T09:40:51;52862.28;;;-146.10;40.78
12763;BME280;6445;52.490;13.378;2023-06-10T09:43:17;52860.28;;;-146.10;42.39
12763;BME280;6445;52.490;13.378;2023-06-10T09:45:42;52744.22;;;-146.10;46.60
12763;BME280;6445;52.490;13.378;2023-06-10T09:48:08;52630.16;;;-146.10;49.89
12763;BME280;6445;52.490;13.378;2023-06-10T09:50:33;52634.19;;;-146.10;51.44
12763;BME280;6445;52.490;13.378;2023-06-10T09:52:59;52568.16;;;-146.10;54.04
12763;BME280;6445;52.490;13.378;2023-06-10T09:55:27;52586.16;;;-146.10;53.94
12763;BME280;6445;52.490;13.378;2023-06-10T09:57:53;52546.13;;;-146.10;53.04
12763;BME280;6445;52.490;13.378;2023-06-10T10:00:18;52540.13;;;-146.10;54.70
12763;BME280;6445;52.490;13.378;2023-06-10T10:02:46;52546.13;;;-146.10;53.54
12763;BME280;6445;52.490;13.378;2023-06-10T10:05:14;52546.13;;;-146.10;54.28
12763;BME280;6445;52.490;13.378;2023-06-10T10:07:40;52526.13;;;-146.10;54.94
12763;BME280;6445;52.490;13.378;2023-06-10T10:10:06;52504.13;;;-146.10;53.64
12763;BME280;6445;52.490;13.378;2023-06-10T10:12:32;52542.13;;;-146.10;53.86
12763;BME280;6445;52.490;13.378;2023-06-10T10:14:58;52506.13;;;-146.10;54.53
12763;BME280;6445;52.490;13.378;2023-06-10T10:17:24;52538.13;;;-146.10;53.70
12763;BME280;6445;52.490;13.378;2023-06-10T10:19:58;52556.16;;;-146.10;52.06
12763;BME280;6445;52.490;13.378;2023-06-10T10:22:30;52526.13;;;-146.10;52.69
12763;BME280;6445;52.490;13.378;2023-06-10T10:24:57;52550.16;;;-146.10;51.78
12763;BME280;6445;52.490;13.378;2023-06-10T10:27:35;52550.16;;;-146.10;51.78
12763;BME280;6445;52.490;13.378;2023-06-10T10:30:02;52582.16;;;-146.10;51.67
12763;BME280;6445;52.490;13.378;2023-06-10T10:32:34;52582.16;;;-146.10;50.87
12763;BME280;6445;52.490;13.378;2023-06-10T10:35:12;52574.16;;;-146.10;50.02
12763;BME280;6445;52.490;13.378;2023-06-10T10:37:38;52550.16;;;-146.10;50.20
12763;BME280;6445;52.490;13.378;2023-06-10T10:40:04;52560.16;;;-146.10;49.65
12763;BME280;6445;52.490;13.378;2023-06-10T10:42:30;52584.16;;;-146.10;48.09
12763;BME280;6445;52.490;13.378;2023-06-10T10:44:57;52560.16;;;-146.10;46.28
12763;BME280;6445;52.490;13.378;2023-06-10T10:47:27;52598.16;;;-146.10;43.86
12763;BME280;6445;52.490;13.378;2023-06-10T10:49:54;52630.16;;;-146.10;41.84
12763;BME280;6445;52.490;13.378;2023-06-10T10:52:20;52614.16;;;-146.10;40.29
12763;BME280;6445;52.490;13.378;2023-06-10T10:54:46;52664.19;;;-146.10;39.80
12763;BME280;6445;52.490;13.378;2023-06-10T11:02:09;52740.22;;;-146.10;37.46
12763;BME280;6445;52.490;13.378;2023-06-10T11:04:34;52794.25;;;-146.10;37.07
12763;BME280;6445;52.490;13.378;2023-06-10T11:07:06;52834.25;;;-146.10;35.95
12763;BME280;6445;52.490;13.378;2023-06-10T11:09:31;52838.25;;;-146.10;35.69
12763;BME280;6445;52.490;13.378;2023-06-10T11:11:57;52826.25;;;-146.10;35.78
12763;BME280;6445;52.490;13.378;2023-06-10T11:14:28;52804.25;;;-146.10;35.82
12763;BME280;6445;52.490;13.378;2023-06-10T11:16:56;52848.28;;;-146.10;35.67
12763;BME280;6445;52.490;13.378;2023-06-10T11:19:35;52808.25;;;-146.10;35.38
12763;BME280;6445;52.490;13.378;2023-06-10T11:22:02;52754.22;;;-146.10;35.96
12763;BME280;6445;52.490;13.378;2023-06-10T11:24:29;52792.25;;;-146.10;35.40
12763;BME280;6445;52.490;13.378;2023-06-10T11:26:54;52794.25;;;-146.10;35.59
12763;BME280;6445;52.490;13.378;2023-06-10T11:29:20;52834.25;;;-146.10;35.78
12763;BME280;6445;52.490;13.378;2023-06-10T11:31:49;52864.28;;;-146.10;35.12
12763;BME280;6445;52.490;13.378;2023-06-10T11:34:15;52874.28;;;-146.10;34.98
12763;BME280;6445;52.490;13.378;2023-06-10T11:36:45;52898.28;;;-146.10;34.39
12763;BME280;6445;52.490;13.378;2023-06-10T11:39:11;52930.31;;;-146.10;34.28
12763;BME280;6445;52.490;13.378;2023-06-10T11:41:38;52994.34;;;-146.10;33.39
12763;BME280;6445;52.490;13.378;2023-06-10T11:44:07;53014.34;;;-146.10;32.81
12763;BME280;6445;52.490;13.378;2023-06-10T11:46:33;53038.34;;;-146.10;32.41
12763;BME280;6445;52.490;13.378;2023-06-10T11:48:59;53056.38;;;-146.10;31.83
12763;BME280;6445;52.490;13.378;2023-06-10T11:51:26;53046.38;;;-146.10;32.00
12763;BME280;6445;52.490;13.378;2023-06-10T11:53:52;53068.38;;;-146.10;32.28
12763;BME280;6445;52.490;13.378;2023-06-10T11:56:26;52964.31;;;-146.10;32.53
12763;BME280;6445;52.490;13.378;2023-06-10T11:58:57;52964.31;;;-146.10;33.20
12763;BME280;6445;52.490;13.378;2023-06-10T12:01:24;52932.31;;;-146.10;32.92
12763;BME280;6445;52.490;13.378;2023-06-10T12:03:57;53060.38;;;-146.10;32.56
12763;BME280;6445;52.490;13.378;2023-06-10T12:06:22;53024.34;;;-146.10;33.34
12763;BME280;6445;52.490;13.378;2023-06-10T12:08:48;52972.31;;;-146.10;34.48
12763;BME280;6445;52.490;13.378;2023-06-10T12:11:13;53046.38;;;-146.10;34.77
12763;BME280;6445;52.490;13.378;2023-06-10T12:13:45;53034.34;;;-146.10;35.98
12763;BME280;6445;52.490;13.378;2023-06-10T12:16:13;53014.34;;;-146.10;35.13
12763;BME280;6445;52.490;13.378;2023-06-10T12:18:38;53012.34;;;-146.10;35.63
12763;BME280;6445;52.490;13.378;2023-06-10T12:21:15;52946.31;;;-146.10;36.76
12763;BME280;6445;52.490;13.378;2023-06-10T12:23:59;52972.31;;;-146.10;35.91
12763;BME280;6445;52.490;13.378;2023-06-10T12:26:34;52942.31;;;-146.10;35.02
12763;BME280;6445;52.490;13.378;2023-06-10T12:29:01;52932.31;;;-146.10;34.50
12763;BME280;6445;52.490;13.378;2023-06-10T12:31:26;52986.34;;;-146.10;34.04
12763;BME280;6445;52.490;13.378;2023-06-10T12:34:07;52998.34;;;-146.10;33.79
12763;BME280;6445;52.490;13.378;2023-06-10T12:36:33;52962.31;;;-146.10;33.75